createdAt,value
2023-02-23T00:00:36.702Z,1.51
2023-02-23T00:03:06.782Z,1.58
2023-02-23T00:05:38.452Z,1.43
2023-02-23T00:08:08.304Z,1.49
2023-02-23T00:10:38.247Z,1.44
2023-02-23T00:13:07.764Z,1.40
2023-02-23T00:15:37.931Z,1.29
2023-02-23T00:18:07.483Z,1.15
2023-02-23T00:20:39.330Z,1.17
2023-02-23T00:23:09.790Z,1.42
2023-02-23T00:25:42.296Z,1.57
2023-02-23T00:28:11.976Z,1.32
2023-02-23T00:30:41.832Z,1.38
2023-02-23T00:33:12.511Z,1.48
2023-02-23T00:35:42.841Z,1.26
2023-02-23T00:38:12.291Z,1.18
2023-02-23T00:40:42.340Z,1.13
2023-02-23T00:43:11.865Z,1.19
2023-02-23T00:45:42.028Z,1.25
2023-02-23T00:48:11.846Z,1.42
2023-02-23T00:50:41.898Z,1.34
2023-02-23T00:53:11.725Z,1.08
2023-02-23T00:55:42.735Z,1.03
2023-02-23T00:58:17.427Z,1.03
2023-02-23T01:00:47.589Z,1.00
2023-02-23T01:03:17.311Z,0.91
2023-02-23T01:05:48.796Z,0.91
2023-02-23T01:08:19.871Z,0.90
2023-02-23T01:10:51.321Z,0.94
2023-02-23T01:13:22.780Z,0.88
2023-02-23T01:15:52.357Z,0.86
2023-02-23T01:18:22.333Z,0.99
2023-02-23T01:20:52.227Z,1.04
2023-02-23T01:23:22.869Z,0.89
2023-02-23T01:25:52.410Z,0.93
2023-02-23T01:28:22.064Z,0.87
2023-02-23T01:30:52.011Z,0.88
2023-02-23T01:33:21.613Z,0.81
2023-02-23T01:36:01.790Z,0.85
2023-02-23T01:38:31.587Z,0.85
2023-02-23T01:41:03.139Z,0.75
2023-02-23T01:43:32.943Z,0.65
2023-02-23T01:46:03.018Z,0.56
2023-02-23T01:48:36.180Z,0.53
2023-02-23T01:51:18.641Z,0.58
2023-02-23T01:53:52.535Z,0.59
2023-02-23T01:56:25.117Z,0.62
2023-02-23T01:58:57.958Z,0.54
2023-02-23T02:01:29.452Z,0.48
2023-02-23T02:04:07.424Z,0.54
2023-02-23T02:06:39.480Z,0.46
2023-02-23T02:09:13.626Z,0.39
2023-02-23T02:11:45.863Z,0.41
2023-02-23T02:14:18.717Z,0.42
2023-02-23T02:16:52.887Z,0.30
2023-02-23T02:20:00.602Z,0.41
2023-02-23T02:23:02.354Z,0.38
2023-02-23T02:25:52.578Z,0.37
2023-02-23T02:28:45.481Z,0.65
2023-02-23T02:31:36.572Z,0.44
2023-02-23T02:34:36.997Z,0.41
2023-02-23T02:37:43.252Z,0.24
2023-02-23T02:40:27.844Z,0.33
2023-02-23T02:43:05.126Z,0.38
2023-02-23T02:45:46.964Z,0.56
2023-02-23T02:48:30.165Z,0.32
2023-02-23T02:51:13.027Z,0.46
2023-02-23T02:53:54.690Z,0.40
2023-02-23T02:56:27.521Z,0.36
2023-02-23T02:58:57.676Z,0.35
2023-02-23T03:01:49.546Z,0.32
2023-02-23T03:04:42.996Z,0.30
2023-02-23T03:07:36.190Z,0.47
2023-02-23T03:10:40.722Z,0.66
2023-02-23T03:13:37.724Z,0.53
2023-02-23T03:16:43.174Z,0.57
2023-02-23T03:19:42.524Z,0.66
2023-02-23T03:22:33.570Z,0.82
2023-02-23T03:25:30.262Z,0.69
2023-02-23T03:28:24.514Z,0.74
2023-02-23T03:31:18.821Z,0.60
2023-02-23T03:34:18.330Z,0.62
2023-02-23T03:37:09.091Z,0.55
2023-02-23T03:40:02.078Z,0.47
2023-02-23T03:42:53.287Z,0.60
2023-02-23T03:45:44.142Z,0.67
2023-02-23T03:48:34.601Z,0.76
2023-02-23T03:51:27.481Z,0.73
2023-02-23T03:54:23.747Z,0.72
2023-02-23T03:57:14.006Z,0.83
2023-02-23T04:00:05.515Z,0.69
2023-02-23T04:02:58.184Z,0.86
2023-02-23T04:05:48.009Z,0.80
2023-02-23T04:08:38.862Z,0.67
2023-02-23T04:11:40.770Z,0.67
2023-02-23T04:14:12.654Z,0.97
2023-02-23T04:16:43.708Z,0.90
2023-02-23T04:19:14.750Z,0.91
2023-02-23T04:21:43.555Z,0.78
2023-02-23T04:24:13.225Z,1.03
2023-02-23T04:26:43.551Z,0.88
2023-02-23T04:29:14.596Z,1.03
2023-02-23T04:31:44.566Z,0.88
2023-02-23T04:34:15.368Z,0.75
2023-02-23T04:36:45.465Z,0.76
2023-02-23T04:39:15.456Z,0.70
2023-02-23T04:41:45.972Z,0.73
2023-02-23T04:44:15.475Z,0.68
2023-02-23T04:46:45.418Z,0.86
2023-02-23T04:49:15.070Z,0.99
2023-02-23T04:51:44.947Z,0.78
2023-02-23T04:54:14.750Z,0.68
2023-02-23T04:56:44.639Z,0.92
2023-02-23T04:59:14.402Z,0.92
2023-02-23T05:01:44.267Z,1.01
2023-02-23T05:04:13.962Z,0.87
2023-02-23T05:06:43.867Z,0.73
2023-02-23T05:09:13.690Z,0.73
2023-02-23T05:11:43.592Z,0.91
2023-02-23T05:14:13.493Z,0.88
2023-02-23T05:16:43.306Z,0.87
2023-02-23T05:19:13.065Z,0.77
2023-02-23T05:21:43.017Z,0.86
2023-02-23T05:24:14.330Z,0.96
2023-02-23T05:26:44.006Z,0.95
2023-02-23T05:29:13.751Z,0.80
2023-02-23T05:31:43.900Z,0.90
2023-02-23T05:34:14.323Z,0.86
2023-02-23T05:36:44.493Z,0.76
2023-02-23T05:39:14.319Z,0.82
2023-02-23T05:41:44.124Z,0.74
2023-02-23T05:44:14.213Z,0.80
2023-02-23T05:46:45.529Z,0.80
2023-02-23T05:49:15.485Z,0.84
2023-02-23T05:51:45.297Z,0.64
2023-02-23T05:54:15.161Z,0.81
2023-02-23T05:56:45.043Z,0.78
2023-02-23T05:59:16.537Z,0.83
2023-02-23T06:01:46.460Z,0.79
2023-02-23T06:04:17.378Z,0.85
2023-02-23T06:06:47.178Z,0.69
2023-02-23T06:09:17.118Z,0.63
2023-02-23T06:11:46.908Z,0.78
2023-02-23T06:14:16.825Z,0.85
2023-02-23T06:16:48.236Z,0.75
2023-02-23T06:19:18.075Z,0.79
2023-02-23T06:21:48.200Z,0.66
2023-02-23T06:24:19.317Z,0.92
2023-02-23T06:26:49.177Z,0.82
2023-02-23T06:29:18.953Z,0.60
2023-02-23T06:31:48.891Z,0.74
2023-02-23T06:34:19.058Z,0.94
2023-02-23T06:36:52.976Z,1.01
2023-02-23T06:39:22.514Z,1.00
2023-02-23T06:41:52.411Z,1.05
2023-02-23T06:44:22.744Z,0.88
2023-02-23T06:46:53.509Z,1.04
2023-02-23T06:49:23.246Z,1.04
2023-02-23T06:51:53.102Z,0.97
2023-02-23T06:54:23.772Z,1.01
2023-02-23T06:56:55.328Z,1.24
2023-02-23T06:59:25.138Z,1.25
2023-02-23T07:01:55.030Z,1.25
2023-02-23T07:04:25.832Z,1.20
2023-02-23T07:06:55.699Z,1.30
2023-02-23T07:09:25.570Z,1.40
2023-02-23T07:11:55.417Z,1.65
2023-02-23T07:14:26.935Z,1.40
2023-02-23T07:16:57.088Z,1.57
2023-02-23T07:19:26.837Z,1.47
2023-02-23T07:21:56.784Z,1.71
2023-02-23T07:24:30.785Z,1.62
2023-02-23T07:27:02.832Z,1.62
2023-02-23T07:29:33.056Z,1.97
2023-02-23T07:32:02.987Z,2.02
2023-02-23T07:34:32.923Z,2.11
2023-02-23T07:37:03.026Z,2.08
2023-02-23T07:39:34.100Z,2.28
2023-02-23T07:42:04.855Z,2.16
2023-02-23T07:44:34.968Z,2.13
2023-02-23T07:47:04.971Z,2.35
2023-02-23T07:49:38.247Z,2.42
2023-02-23T07:52:08.068Z,2.29
2023-02-23T07:54:41.222Z,2.27
2023-02-23T07:57:12.184Z,2.35
2023-02-23T07:59:41.453Z,2.43
2023-02-23T08:02:16.809Z,2.43
2023-02-23T08:04:47.967Z,2.54
2023-02-23T08:07:18.204Z,2.66
2023-02-23T08:09:50.224Z,2.97
2023-02-23T08:12:20.567Z,3.21
2023-02-23T08:14:50.169Z,3.25
2023-02-23T08:17:20.186Z,3.29
2023-02-23T08:19:50.177Z,3.27
2023-02-23T08:22:19.715Z,3.32
2023-02-23T08:27:33.955Z,3.23
2023-02-23T08:30:05.440Z,3.49
2023-02-23T08:32:36.473Z,3.87
2023-02-23T08:35:07.804Z,3.90
2023-02-23T08:37:37.886Z,3.84
2023-02-23T08:40:08.015Z,4.12
2023-02-23T08:42:37.670Z,4.25
2023-02-23T08:45:08.671Z,4.34
2023-02-23T08:47:38.661Z,4.63
2023-02-23T08:50:10.326Z,4.75
2023-02-23T08:52:39.566Z,4.66
2023-02-23T08:55:11.179Z,4.43
2023-02-23T08:57:40.967Z,4.56
2023-02-23T09:00:17.246Z,4.40
2023-02-23T09:02:48.392Z,4.66
2023-02-23T09:05:18.929Z,4.70
2023-02-23T09:07:49.292Z,4.52
2023-02-23T09:10:22.868Z,4.54
2023-02-23T09:12:53.173Z,4.59
2023-02-23T09:15:23.268Z,5.03
2023-02-23T09:17:54.551Z,5.27
2023-02-23T09:20:25.840Z,5.33
2023-02-23T09:22:55.673Z,4.93
2023-02-23T09:25:25.956Z,4.99
2023-02-23T09:27:59.861Z,5.39
2023-02-23T09:30:29.738Z,5.28
2023-02-23T09:32:59.715Z,5.75
2023-02-23T09:35:29.485Z,5.67
2023-02-23T09:37:59.305Z,5.97
2023-02-23T09:40:32.291Z,6.11
2023-02-23T09:43:13.361Z,6.37
2023-02-23T09:45:46.574Z,6.21
2023-02-23T09:48:22.564Z,6.46
2023-02-23T09:50:58.014Z,6.52
2023-02-23T09:53:46.020Z,6.37
2023-02-23T09:56:27.826Z,6.49
2023-02-23T09:58:57.843Z,6.63
2023-02-23T10:01:51.900Z,6.75
2023-02-23T10:04:43.056Z,6.77
2023-02-23T10:07:32.854Z,7.20
2023-02-23T10:10:22.545Z,7.37
2023-02-23T10:12:58.167Z,7.16
2023-02-23T10:15:56.059Z,7.16
2023-02-23T10:18:46.000Z,7.04
2023-02-23T10:21:09.407Z,7.47
2023-02-23T10:23:42.272Z,7.55
2023-02-23T10:26:15.507Z,7.97
2023-02-23T10:28:46.921Z,8.15
2023-02-23T10:31:34.452Z,8.13
2023-02-23T10:34:07.161Z,8.17
2023-02-23T10:36:40.465Z,8.17
2023-02-23T10:39:10.631Z,8.36
2023-02-23T10:41:41.054Z,8.51
2023-02-23T10:44:17.180Z,8.75
2023-02-23T10:46:49.738Z,8.97
2023-02-23T10:49:25.017Z,8.32
2023-02-23T10:51:56.449Z,8.60
2023-02-23T10:54:41.777Z,8.67
2023-02-23T10:57:14.432Z,8.78
2023-02-23T10:59:47.305Z,9.09
2023-02-23T11:02:20.373Z,8.94
2023-02-23T11:04:57.027Z,8.74
2023-02-23T11:07:31.070Z,8.70
2023-02-23T11:10:03.572Z,8.43
2023-02-23T11:12:43.128Z,8.27
2023-02-23T11:15:46.332Z,8.58
2023-02-23T11:18:05.011Z,8.81
2023-02-23T11:20:41.884Z,8.64
2023-02-23T11:23:23.401Z,8.69
2023-02-23T11:25:59.710Z,8.61
2023-02-23T11:28:38.414Z,8.37
2023-02-23T11:31:17.521Z,8.58
2023-02-23T11:33:48.529Z,8.61
2023-02-23T11:36:24.807Z,8.44
2023-02-23T11:38:57.328Z,8.67
2023-02-23T11:41:27.537Z,8.31
2023-02-23T11:44:04.316Z,8.31
2023-02-23T11:46:39.729Z,8.37
2023-02-23T11:49:12.069Z,8.08
2023-02-23T11:51:44.182Z,8.08
2023-02-23T11:54:34.031Z,8.19
2023-02-23T11:57:03.926Z,8.11
2023-02-23T11:59:36.818Z,8.37
2023-02-23T12:02:23.184Z,8.39
2023-02-23T12:05:05.339Z,8.35
2023-02-23T12:07:44.107Z,8.51
2023-02-23T12:10:46.950Z,8.70
2023-02-23T12:13:34.641Z,8.84
2023-02-23T12:16:10.412Z,8.73
2023-02-23T12:18:53.187Z,8.72
2023-02-23T12:21:38.079Z,8.44
2023-02-23T12:24:13.769Z,8.80
2023-02-23T12:26:58.003Z,8.86
2023-02-23T12:29:39.918Z,9.09
2023-02-23T12:32:18.768Z,8.80
2023-02-23T12:34:54.533Z,8.70
2023-02-23T12:37:30.077Z,8.70
2023-02-23T12:40:05.696Z,8.85
2023-02-23T12:42:59.257Z,8.96
2023-02-23T12:45:32.112Z,8.96
2023-02-23T12:48:26.320Z,8.95
2023-02-23T12:50:59.493Z,9.04
2023-02-23T12:53:32.330Z,9.21
2023-02-23T12:56:08.047Z,9.52
2023-02-23T12:59:14.398Z,9.52
2023-02-23T13:01:55.788Z,9.73
2023-02-23T13:04:40.476Z,9.42
2023-02-23T13:07:21.938Z,9.63
2023-02-23T13:10:06.685Z,9.65
2023-02-23T13:12:49.358Z,9.70
2023-02-23T13:15:27.805Z,9.90
2023-02-23T13:18:06.302Z,9.94
2023-02-23T13:20:53.555Z,10.03
2023-02-23T13:23:37.711Z,10.18
2023-02-23T13:26:26.697Z,10.63
2023-02-23T13:29:08.797Z,10.22
2023-02-23T13:31:41.711Z,10.43
2023-02-23T13:34:14.390Z,10.36
2023-02-23T13:36:46.010Z,10.68
2023-02-23T13:39:27.255Z,10.87
2023-02-23T13:42:12.335Z,10.87
2023-02-23T13:45:03.481Z,10.84
2023-02-23T13:47:36.413Z,10.87
2023-02-23T13:50:18.795Z,10.79
2023-02-23T13:52:48.663Z,11.02
2023-02-23T13:55:47.093Z,11.19
2023-02-23T13:58:08.798Z,11.10
2023-02-23T14:00:39.124Z,11.27
2023-02-23T14:03:11.345Z,11.09
2023-02-23T14:05:46.887Z,11.21
2023-02-23T14:08:25.230Z,11.18
2023-02-23T14:10:57.312Z,11.25
2023-02-23T14:13:33.445Z,11.00
2023-02-23T14:16:18.572Z,11.00
2023-02-23T14:18:54.375Z,11.01
2023-02-23T14:21:35.837Z,10.85
2023-02-23T14:24:15.300Z,10.91
2023-02-23T14:27:15.005Z,10.74
2023-02-23T14:30:05.020Z,10.76
2023-02-23T14:32:40.873Z,10.88
2023-02-23T14:35:36.547Z,10.95
2023-02-23T14:38:10.261Z,10.89
2023-02-23T14:40:43.121Z,10.90
2023-02-23T14:43:35.481Z,10.90
2023-02-23T14:46:22.067Z,10.52
2023-02-23T14:49:10.450Z,10.67
2023-02-23T14:51:49.316Z,10.69
2023-02-23T14:54:28.104Z,10.40
2023-02-23T14:56:59.820Z,10.57
2023-02-23T14:59:41.922Z,10.60
2023-02-23T15:02:20.333Z,10.47
2023-02-23T15:04:50.245Z,10.50
2023-02-23T15:07:27.096Z,10.63
2023-02-23T15:09:59.717Z,10.57
2023-02-23T15:12:32.140Z,10.49
2023-02-23T15:15:04.342Z,10.36
2023-02-23T15:17:35.281Z,10.24
2023-02-23T15:20:16.338Z,10.34
2023-02-23T15:22:41.761Z,10.55
2023-02-23T15:25:12.062Z,10.40
2023-02-23T15:27:45.241Z,10.37
2023-02-23T15:30:31.829Z,10.25
2023-02-23T15:33:06.673Z,10.04
2023-02-23T15:35:40.700Z,10.19
2023-02-23T15:38:17.967Z,9.90
2023-02-23T15:40:42.376Z,9.96
2023-02-23T15:43:13.015Z,10.23
2023-02-23T15:45:49.068Z,10.25
2023-02-23T15:48:22.745Z,10.06
2023-02-23T15:50:57.333Z,9.96
2023-02-23T15:53:33.565Z,9.89
2023-02-23T15:56:13.829Z,9.71
2023-02-23T15:58:56.142Z,9.97
2023-02-23T16:01:26.266Z,9.72
2023-02-23T16:04:05.025Z,9.48
2023-02-23T16:06:55.838Z,9.52
2023-02-23T16:09:29.036Z,9.43
2023-02-23T16:12:04.693Z,9.38
2023-02-23T16:14:37.559Z,9.45
2023-02-23T16:17:12.227Z,9.49
2023-02-23T16:19:41.701Z,9.29
2023-02-23T16:22:17.290Z,9.05
2023-02-23T16:24:48.681Z,9.12
2023-02-23T16:27:20.140Z,8.87
2023-02-23T16:29:50.399Z,8.81
2023-02-23T16:32:24.302Z,8.70
2023-02-23T16:34:59.926Z,8.85
2023-02-23T16:37:29.888Z,8.75
2023-02-23T16:40:01.414Z,8.67
2023-02-23T16:42:34.064Z,8.61
2023-02-23T16:45:04.058Z,8.35
2023-02-23T16:47:43.623Z,8.73
2023-02-23T16:50:20.484Z,8.12
2023-02-23T16:52:53.667Z,8.12
2023-02-23T16:55:28.878Z,8.19
2023-02-23T16:58:01.830Z,8.00
2023-02-23T17:00:34.308Z,7.89
2023-02-23T17:03:06.474Z,7.75
2023-02-23T17:05:36.316Z,7.87
2023-02-23T17:08:07.153Z,7.71
2023-02-23T17:10:37.296Z,7.46
2023-02-23T17:13:10.066Z,7.50
2023-02-23T17:15:44.080Z,7.72
2023-02-23T17:18:13.915Z,7.63
2023-02-23T17:20:44.138Z,7.66
2023-02-23T17:23:13.770Z,7.67
2023-02-23T17:25:43.572Z,7.53
2023-02-23T17:28:13.217Z,7.31
2023-02-23T17:30:44.932Z,7.23
2023-02-23T17:33:15.430Z,7.13
2023-02-23T17:35:46.068Z,7.30
2023-02-23T17:38:15.718Z,7.06
2023-02-23T17:40:45.511Z,7.06
2023-02-23T17:43:15.055Z,7.18
2023-02-23T17:45:46.658Z,7.30
2023-02-23T17:48:16.358Z,7.09
2023-02-23T17:50:46.177Z,7.17
2023-02-23T17:53:15.776Z,7.14
2023-02-23T17:55:46.574Z,6.96
2023-02-23T17:58:15.361Z,7.12
2023-02-23T18:00:45.033Z,6.83
2023-02-23T18:03:14.772Z,6.95
2023-02-23T18:05:44.622Z,6.81
2023-02-23T18:08:14.697Z,7.04
2023-02-23T18:10:44.804Z,6.95
2023-02-23T18:13:15.279Z,6.95
2023-02-23T18:15:50.575Z,6.91
2023-02-23T18:18:20.347Z,6.68
2023-02-23T18:20:52.467Z,6.86
2023-02-23T18:23:22.826Z,6.65
2023-02-23T18:25:52.695Z,6.54
2023-02-23T18:28:22.569Z,6.46
2023-02-23T18:30:52.402Z,6.44
2023-02-23T18:33:21.960Z,6.39
2023-02-23T18:35:52.069Z,6.32
2023-02-23T18:38:21.681Z,6.24
2023-02-23T18:40:51.484Z,6.18
2023-02-23T18:43:21.044Z,6.11
2023-02-23T18:45:50.910Z,6.14
2023-02-23T18:48:20.644Z,6.25
2023-02-23T18:50:51.947Z,6.45
2023-02-23T18:53:21.814Z,5.98
2023-02-23T18:55:51.691Z,5.98
2023-02-23T18:58:21.332Z,5.85
2023-02-23T19:00:53.141Z,5.75
2023-02-23T19:03:22.993Z,5.70
2023-02-23T19:05:55.519Z,5.65
2023-02-23T19:08:25.307Z,5.60
2023-02-23T19:10:55.013Z,5.53
2023-02-23T19:13:24.870Z,5.50
2023-02-23T19:15:54.793Z,5.50
2023-02-23T19:18:25.699Z,5.49
2023-02-23T19:20:55.490Z,5.50
2023-02-23T19:23:25.441Z,5.88
2023-02-23T19:25:55.713Z,5.58
2023-02-23T19:28:27.238Z,5.48
2023-02-23T19:31:08.950Z,5.78
2023-02-23T19:33:40.789Z,5.58
2023-02-23T19:36:15.032Z,5.39
2023-02-23T19:38:45.620Z,5.30
2023-02-23T19:41:18.795Z,5.56
2023-02-23T19:43:48.850Z,5.81
2023-02-23T19:46:19.954Z,5.83
2023-02-23T19:48:52.086Z,5.80
2023-02-23T19:51:22.516Z,5.68
2023-02-23T19:53:55.062Z,5.44
2023-02-23T19:56:27.945Z,5.44
2023-02-23T19:58:58.858Z,5.26
2023-02-23T20:01:29.969Z,5.50
2023-02-23T20:04:06.655Z,5.60
2023-02-23T20:06:43.941Z,5.59
2023-02-23T20:09:15.158Z,5.65
2023-02-23T20:11:44.980Z,5.65
2023-02-23T20:14:15.456Z,5.70
2023-02-23T20:16:45.203Z,5.45
2023-02-23T20:19:15.026Z,5.52
2023-02-23T20:21:44.911Z,5.89
2023-02-23T20:24:14.564Z,6.31
2023-02-23T20:26:44.359Z,6.44
2023-02-23T20:29:18.125Z,6.40
2023-02-23T20:31:51.232Z,6.55
2023-02-23T20:34:24.656Z,6.83
2023-02-23T20:36:55.717Z,7.00
2023-02-23T20:39:26.873Z,7.23
2023-02-23T20:41:56.663Z,7.26
2023-02-23T20:44:28.045Z,7.27
2023-02-23T20:46:58.114Z,7.37
2023-02-23T20:49:29.682Z,7.53
2023-02-23T20:51:59.531Z,7.52
2023-02-23T20:54:29.345Z,7.51
2023-02-23T20:57:03.561Z,7.39
2023-02-23T20:59:34.140Z,7.75
2023-02-23T21:02:04.945Z,7.85
2023-02-23T21:04:38.469Z,7.64
2023-02-23T21:07:09.146Z,7.71
2023-02-23T21:09:40.635Z,7.81
2023-02-23T21:12:10.857Z,7.69
2023-02-23T21:14:40.781Z,7.93
2023-02-23T21:17:10.701Z,7.85
2023-02-23T21:19:40.593Z,7.82
2023-02-23T21:22:11.362Z,7.88
2023-02-23T21:24:40.970Z,7.74
2023-02-23T21:27:13.303Z,8.14
2023-02-23T21:29:44.114Z,8.07
2023-02-23T21:32:16.773Z,8.07
2023-02-23T21:34:46.661Z,8.24
2023-02-23T21:37:17.182Z,8.09
2023-02-23T21:39:47.111Z,7.95
2023-02-23T21:42:16.905Z,8.23
2023-02-23T21:44:47.016Z,8.24
2023-02-23T21:47:16.898Z,8.14
2023-02-23T21:49:48.400Z,8.22
2023-02-23T21:52:18.864Z,8.09
2023-02-23T21:54:52.528Z,7.89
2023-02-23T21:57:26.346Z,8.08
2023-02-23T21:59:56.762Z,8.02
2023-02-23T22:02:28.286Z,8.10
2023-02-23T22:04:58.190Z,8.18
2023-02-23T22:07:29.280Z,8.02
2023-02-23T22:09:59.212Z,7.91
2023-02-23T22:12:29.302Z,7.73
2023-02-23T22:14:59.685Z,7.91
2023-02-23T22:17:31.098Z,7.92
2023-02-23T22:20:01.003Z,7.85
2023-02-23T22:22:32.794Z,7.94
2023-02-23T22:25:06.950Z,7.87
2023-02-23T22:27:36.773Z,7.80
2023-02-23T22:30:09.365Z,8.07
2023-02-23T22:32:40.465Z,8.07
2023-02-23T22:35:10.921Z,7.95
2023-02-23T22:37:40.969Z,7.89
2023-02-23T22:40:15.649Z,8.02
2023-02-23T22:42:48.721Z,7.72
2023-02-23T22:45:20.294Z,7.84
2023-02-23T22:47:49.101Z,7.77
2023-02-23T22:50:19.503Z,7.75
2023-02-23T22:52:49.873Z,7.87
2023-02-23T22:55:19.403Z,7.87
2023-02-23T22:57:49.174Z,7.92
2023-02-23T23:00:20.236Z,8.12
2023-02-23T23:02:50.213Z,7.95
2023-02-23T23:05:21.665Z,7.93
2023-02-23T23:07:51.420Z,7.96
2023-02-23T23:10:21.309Z,8.11
2023-02-23T23:12:51.143Z,8.27
2023-02-23T23:15:22.187Z,8.21
2023-02-23T23:17:52.487Z,8.19
2023-02-23T23:20:25.177Z,7.95
2023-02-23T23:22:56.870Z,7.89
2023-02-23T23:25:28.923Z,7.89
2023-02-23T23:27:58.548Z,7.92
2023-02-23T23:30:29.328Z,7.85
2023-02-23T23:33:00.988Z,8.16
2023-02-23T23:35:32.916Z,8.21
2023-02-23T23:38:03.142Z,8.02
2023-02-23T23:40:34.924Z,8.02
2023-02-23T23:43:06.356Z,8.01
2023-02-23T23:45:38.277Z,8.04
2023-02-23T23:48:09.498Z,8.23
2023-02-23T23:50:39.701Z,7.94
2023-02-23T23:53:10.521Z,8.14
2023-02-23T23:55:40.842Z,8.17
2023-02-23T23:58:10.497Z,8.11
